createdAt,value
2018-01-02T00:00:35.564Z,7.14
2018-01-02T00:01:36.509Z,7.17
2018-01-02T00:02:35.525Z,7.18
2018-01-02T00:03:35.541Z,7.15
2018-01-02T00:04:35.538Z,7.07
2018-01-02T00:05:35.789Z,7.07
2018-01-02T00:06:35.499Z,7.18
2018-01-02T00:07:35.474Z,7.07
2018-01-02T00:08:35.517Z,7.14
2018-01-02T00:09:35.494Z,7.06
2018-01-02T00:10:35.484Z,7.05
2018-01-02T00:11:35.716Z,7.07
2018-01-02T00:12:35.212Z,7.13
2018-01-02T00:13:35.713Z,7.11
2018-01-02T00:14:35.200Z,7.1
2018-01-02T00:15:35.764Z,7.07
2018-01-02T00:16:35.442Z,7.13
2018-01-02T00:17:35.690Z,7.03
2018-01-02T00:18:35.444Z,7.1
2018-01-02T00:19:35.663Z,7.07
2018-01-02T00:20:35.669Z,7.14
2018-01-02T00:21:35.407Z,7.07
2018-01-02T00:22:35.385Z,7.03
2018-01-02T00:23:35.646Z,7.13
2018-01-02T00:24:35.624Z,7.06
2018-01-02T00:25:35.114Z,7.11
2018-01-02T00:26:35.620Z,7.06
2018-01-02T00:27:35.332Z,7.03
2018-01-02T00:28:35.367Z,7
2018-01-02T00:29:35.381Z,7.02
2018-01-02T00:30:35.331Z,6.85
2018-01-02T00:31:35.586Z,6.92
2018-01-02T00:32:35.073Z,7.05
2018-01-02T00:33:35.326Z,6.93
2018-01-02T00:34:35.543Z,6.89
2018-01-02T00:35:35.279Z,6.87
2018-01-02T00:36:35.030Z,6.92
2018-01-02T00:37:35.301Z,6.82
2018-01-02T00:38:35.514Z,6.87
2018-01-02T00:39:35.254Z,6.89
2018-01-02T00:40:35.240Z,6.89
2018-01-02T00:41:35.244Z,6.97
2018-01-02T00:42:35.260Z,7.13
2018-01-02T00:43:35.242Z,7.06
2018-01-02T00:44:35.508Z,7.14
2018-01-02T00:45:35.470Z,7.15
2018-01-02T00:46:35.467Z,7.17
2018-01-02T00:47:34.965Z,7.17
2018-01-02T00:48:35.210Z,7.17
2018-01-02T00:49:35.450Z,7.23
2018-01-02T00:50:35.164Z,7.2
2018-01-02T00:51:35.170Z,7.14
2018-01-02T00:52:35.402Z,7.18
2018-01-02T00:53:35.155Z,7.11
2018-01-02T00:54:35.388Z,7.05
2018-01-02T00:55:35.408Z,7.06
2018-01-02T00:56:35.143Z,7.15
2018-01-02T00:57:35.111Z,7.07
2018-01-02T00:58:35.123Z,7.05
2018-01-02T00:59:35.393Z,7.06
2018-01-02T01:00:35.102Z,7.06
2018-01-02T01:01:35.348Z,7.15
2018-01-02T01:02:35.346Z,7.17
2018-01-02T01:03:35.353Z,7.14
2018-01-02T01:04:35.090Z,7.15
2018-01-02T01:05:35.314Z,7.13
2018-01-02T01:06:35.054Z,7.11
2018-01-02T01:07:35.062Z,7.14
2018-01-02T01:08:35.296Z,7.06
2018-01-02T01:09:35.035Z,7.17
2018-01-02T01:10:35.291Z,7.06
2018-01-02T01:11:35.286Z,7.06
2018-01-02T01:12:35.271Z,7.07
2018-01-02T01:13:35.010Z,7.02
2018-01-02T01:14:35.014Z,7.1
2018-01-02T01:15:35.007Z,7.11
2018-01-02T01:16:35.002Z,7.11
2018-01-02T01:17:34.973Z,7.18
2018-01-02T01:18:34.727Z,7.28
2018-01-02T01:19:34.970Z,7.25
2018-01-02T01:20:34.711Z,7.31
2018-01-02T01:21:35.195Z,7.36
2018-01-02T01:22:34.688Z,7.35
2018-01-02T01:23:35.183Z,7.42
2018-01-02T01:24:35.180Z,7.33
2018-01-02T01:25:35.174Z,7.35
2018-01-02T01:26:35.161Z,7.36
2018-01-02T01:27:35.165Z,7.4
2018-01-02T01:28:35.150Z,7.38
2018-01-02T01:29:34.892Z,7.39
2018-01-02T01:30:35.144Z,7.45
2018-01-02T01:31:35.132Z,7.35
2018-01-02T01:32:35.129Z,7.36
2018-01-02T01:33:34.618Z,7.39
2018-01-02T01:34:34.614Z,7.36
2018-01-02T01:35:34.919Z,7.35
2018-01-02T01:36:34.845Z,7.32
2018-01-02T01:37:35.147Z,7.29
2018-01-02T01:38:35.089Z,7.25
2018-01-02T01:39:35.073Z,7.21
2018-01-02T01:40:34.819Z,7.25
2018-01-02T01:41:34.820Z,7.25
2018-01-02T01:42:34.810Z,7.2
2018-01-02T01:43:34.798Z,7.2
2018-01-02T01:44:35.052Z,7.13
2018-01-02T01:45:35.036Z,7.1
2018-01-02T01:46:35.033Z,7.1
2018-01-02T01:47:35.028Z,7.05
2018-01-02T01:48:35.021Z,7.02
2018-01-02T01:49:35.007Z,7.03
2018-01-02T01:50:35.001Z,7.07
2018-01-02T01:51:34.992Z,7.05
2018-01-02T01:52:34.490Z,7.07
2018-01-02T01:53:34.728Z,7.15
2018-01-02T01:54:34.723Z,7.13
2018-01-02T01:55:34.720Z,7.06
2018-01-02T01:56:34.706Z,7.05
2018-01-02T01:57:34.704Z,7.03
2018-01-02T01:58:34.697Z,7.17
2018-01-02T01:59:34.689Z,7.15
2018-01-02T02:00:34.683Z,7.13
2018-01-02T02:01:34.673Z,7.17
2018-01-02T02:02:35.217Z,7.2
2018-01-02T02:03:34.922Z,7.2
2018-01-02T02:04:34.919Z,7.21
2018-01-02T02:05:34.899Z,7.2
2018-01-02T02:06:34.890Z,7.21
2018-01-02T02:07:34.632Z,7.14
2018-01-02T02:08:34.379Z,7.07
2018-01-02T02:09:34.866Z,7.07
2018-01-02T02:10:34.359Z,7.14
2018-01-02T02:11:34.605Z,7.17
2018-01-02T02:12:34.604Z,7.18
2018-01-02T02:13:34.338Z,7.2
2018-01-02T02:14:34.336Z,7.2
2018-01-02T02:15:34.581Z,7.11
2018-01-02T02:16:34.827Z,7.15
2018-01-02T02:17:37.036Z,7.15
2018-01-02T02:18:34.312Z,7.15
2018-01-02T02:19:34.814Z,7.06
2018-01-02T02:20:34.800Z,7.06
2018-01-02T02:21:34.535Z,7.1
2018-01-02T02:22:34.779Z,7.1
2018-01-02T02:23:34.529Z,7.02
2018-01-02T02:24:34.779Z,7
2018-01-02T02:25:34.509Z,7.06
2018-01-02T02:26:34.755Z,7.06
2018-01-02T02:27:34.498Z,7.07
2018-01-02T02:28:34.490Z,7.02
2018-01-02T02:29:34.483Z,7.03
2018-01-02T02:30:34.488Z,7.03
2018-01-02T02:31:34.725Z,7.03
2018-01-02T02:32:37.971Z,6.96
2018-01-02T02:33:34.474Z,7
2018-01-02T02:34:34.702Z,7.07
2018-01-02T02:35:34.201Z,7.05
2018-01-02T02:36:34.441Z,7
2018-01-02T02:37:34.675Z,7.03
2018-01-02T02:38:34.675Z,7.03
2018-01-02T02:39:34.680Z,6.85
2018-01-02T02:40:34.666Z,6.97
2018-01-02T02:41:34.408Z,6.99
2018-01-02T02:42:34.394Z,7
2018-01-02T02:43:34.640Z,7.02
2018-01-02T02:44:34.150Z,7.03
2018-01-02T02:45:34.394Z,7
2018-01-02T02:46:34.622Z,6.92
2018-01-02T02:47:34.611Z,6.92
2018-01-02T02:48:34.368Z,6.88
2018-01-02T02:49:34.685Z,6.92
2018-01-02T02:50:34.094Z,6.87
2018-01-02T02:51:34.338Z,6.82
2018-01-02T02:52:34.577Z,6.79
2018-01-02T02:53:34.344Z,6.82
2018-01-02T02:54:34.314Z,6.81
2018-01-02T02:55:34.309Z,6.85
2018-01-02T02:56:34.557Z,6.77
2018-01-02T02:57:34.548Z,6.84
2018-01-02T02:58:34.284Z,6.88
2018-01-02T02:59:34.534Z,6.77
2018-01-02T03:00:34.274Z,6.87
2018-01-02T03:01:34.270Z,6.75
2018-01-02T03:02:34.508Z,6.84
2018-01-02T03:03:34.265Z,6.78
2018-01-02T03:04:34.525Z,6.72
2018-01-02T03:05:34.246Z,6.74
2018-01-02T03:06:34.240Z,6.81
2018-01-02T03:07:34.224Z,6.84
2018-01-02T03:08:34.214Z,6.84
2018-01-02T03:09:34.458Z,6.78
2018-01-02T03:10:34.452Z,6.87
2018-01-02T03:11:34.198Z,6.92
2018-01-02T03:12:34.446Z,6.99
2018-01-02T03:13:33.931Z,7
2018-01-02T03:14:34.172Z,6.99
2018-01-02T03:15:34.166Z,7.07
2018-01-02T03:16:34.170Z,7.06
2018-01-02T03:17:34.153Z,7.1
2018-01-02T03:18:33.891Z,7.05
2018-01-02T03:19:34.406Z,7.15
2018-01-02T03:20:34.134Z,7.15
2018-01-02T03:21:34.124Z,7.1
2018-01-02T03:22:34.365Z,7.13
2018-01-02T03:23:34.362Z,7.14
2018-01-02T03:24:34.117Z,7.2
2018-01-02T03:25:34.354Z,7.14
2018-01-02T03:26:34.092Z,7.17
2018-01-02T03:27:33.842Z,7.13
2018-01-02T03:28:34.080Z,7.1
2018-01-02T03:29:34.322Z,7.13
2018-01-02T03:30:34.327Z,7.2
2018-01-02T03:31:34.122Z,7.21
2018-01-02T03:32:34.311Z,7.13
2018-01-02T03:33:40.753Z,7.15
2018-01-02T03:34:34.048Z,7.1
2018-01-02T03:35:34.077Z,7.13
2018-01-02T03:36:33.776Z,7.14
2018-01-02T03:37:33.788Z,7.17
2018-01-02T03:38:33.785Z,7.2
2018-01-02T03:39:34.005Z,7.06
2018-01-02T03:40:34.010Z,7.13
2018-01-02T03:41:33.994Z,7.13
2018-01-02T03:42:33.755Z,7.07
2018-01-02T03:43:34.234Z,7.02
2018-01-02T03:44:33.976Z,7
2018-01-02T03:45:33.985Z,7.03
2018-01-02T03:46:34.213Z,6.97
2018-01-02T03:47:34.219Z,6.95
2018-01-02T03:48:33.967Z,6.89
2018-01-02T03:49:33.957Z,6.95
2018-01-02T03:50:33.948Z,6.82
2018-01-02T03:51:33.936Z,6.87
2018-01-02T03:52:33.943Z,6.79
2018-01-02T03:53:34.173Z,6.75
2018-01-02T03:54:33.916Z,6.74
2018-01-02T03:55:33.901Z,6.74
2018-01-02T03:56:34.146Z,6.75
2018-01-02T03:57:33.895Z,6.66
2018-01-02T03:58:33.887Z,6.78
2018-01-02T03:59:34.141Z,6.67
2018-01-02T04:00:33.870Z,6.67
2018-01-02T04:01:34.106Z,6.75
2018-01-02T04:02:34.122Z,6.69
2018-01-02T04:03:33.869Z,6.69
2018-01-02T04:04:33.597Z,6.69
2018-01-02T04:05:33.842Z,6.67
2018-01-02T04:06:33.839Z,6.69
2018-01-02T04:07:34.076Z,6.74
2018-01-02T04:08:33.833Z,6.72
2018-01-02T04:09:33.807Z,6.74
2018-01-02T04:10:33.796Z,6.7
2018-01-02T04:11:33.817Z,6.7
2018-01-02T04:12:34.051Z,6.7
2018-01-02T04:13:34.053Z,6.74
2018-01-02T04:14:34.035Z,6.79
2018-01-02T04:15:34.039Z,6.74
2018-01-02T04:16:33.513Z,6.81
2018-01-02T04:17:33.777Z,6.7
2018-01-02T04:18:33.778Z,6.79
2018-01-02T04:19:33.750Z,6.75
2018-01-02T04:20:34.017Z,6.79
2018-01-02T04:21:33.992Z,6.67
2018-01-02T04:22:33.987Z,6.67
2018-01-02T04:23:33.970Z,6.69
2018-01-02T04:24:33.709Z,6.63
2018-01-02T04:25:33.958Z,6.57
2018-01-02T04:26:34.034Z,6.51
2018-01-02T04:27:33.939Z,6.51
2018-01-02T04:28:33.694Z,6.48
2018-01-02T04:29:33.940Z,6.48
2018-01-02T04:30:33.922Z,6.38
2018-01-02T04:31:33.399Z,6.35
2018-01-02T04:32:33.907Z,6.38
2018-01-02T04:33:33.384Z,6.38
2018-01-02T04:34:33.913Z,6.42
2018-01-02T04:35:33.431Z,6.39
2018-01-02T04:36:33.366Z,6.36
2018-01-02T04:37:33.611Z,6.28
2018-01-02T04:38:33.877Z,6.3
2018-01-02T04:39:33.348Z,6.27
2018-01-02T04:40:33.609Z,6.2
2018-01-02T04:41:33.609Z,6.2
2018-01-02T04:42:33.580Z,6.12
2018-01-02T04:43:33.584Z,6.07
2018-01-02T04:44:33.837Z,6.16
2018-01-02T04:45:33.557Z,6.14
2018-01-02T04:46:33.808Z,6.14
2018-01-02T04:47:33.556Z,6.11
2018-01-02T04:48:33.794Z,6.08
2018-01-02T04:49:33.539Z,6.05
2018-01-02T04:50:33.539Z,5.98
2018-01-02T04:51:33.260Z,6.04
2018-01-02T04:52:33.539Z,6.07
2018-01-02T04:53:33.503Z,6.12
2018-01-02T04:54:33.491Z,6.05
2018-01-02T04:55:33.234Z,5.99
2018-01-02T04:56:33.746Z,5.99
2018-01-02T04:57:33.745Z,6.12
2018-01-02T04:58:33.498Z,6.11
2018-01-02T04:59:33.718Z,6.11
2018-01-02T05:00:33.458Z,6.04
2018-01-02T05:01:33.438Z,6.07
2018-01-02T05:02:33.712Z,5.98
2018-01-02T05:03:33.180Z,5.99
2018-01-02T05:04:35.468Z,6.11
2018-01-02T05:05:33.671Z,6.08
2018-01-02T05:06:33.655Z,6.12
2018-01-02T05:07:33.150Z,6.12
2018-01-02T05:08:33.645Z,6.08
2018-01-02T05:09:33.386Z,6.14
2018-01-02T05:10:33.631Z,6.11
2018-01-02T05:11:33.616Z,6.19
2018-01-02T05:12:33.614Z,6.14
2018-01-02T05:13:33.610Z,6.11
2018-01-02T05:14:33.354Z,6.09
2018-01-02T05:15:33.600Z,6.11
2018-01-02T05:16:33.577Z,6.04
2018-01-02T05:17:33.322Z,5.91
2018-01-02T05:18:33.570Z,5.97
2018-01-02T05:19:33.571Z,5.9
2018-01-02T05:20:33.059Z,5.93
2018-01-02T05:21:33.298Z,5.89
2018-01-02T05:22:33.547Z,5.89
2018-01-02T05:23:33.028Z,5.93
2018-01-02T05:24:33.283Z,5.9
2018-01-02T05:25:33.014Z,5.98
2018-01-02T05:26:33.520Z,5.99
2018-01-02T05:27:33.500Z,5.91
2018-01-02T05:28:33.493Z,5.93
2018-01-02T05:29:33.241Z,5.86
2018-01-02T05:30:33.294Z,5.87
2018-01-02T05:31:33.224Z,5.82
2018-01-02T05:32:33.225Z,5.89
2018-01-02T05:33:33.462Z,5.83
2018-01-02T05:34:32.951Z,5.91
2018-01-02T05:35:32.940Z,5.91
2018-01-02T05:36:33.436Z,5.87
2018-01-02T05:37:33.200Z,5.91
2018-01-02T05:38:33.169Z,5.93
2018-01-02T05:39:33.162Z,5.98
2018-01-02T05:40:33.409Z,5.91
2018-01-02T05:41:33.228Z,5.86
2018-01-02T05:42:33.155Z,5.76
2018-01-02T05:43:33.395Z,5.76
2018-01-02T05:44:33.139Z,5.73
2018-01-02T05:45:32.883Z,5.72
2018-01-02T05:46:33.364Z,5.69
2018-01-02T05:47:33.362Z,5.69
2018-01-02T05:48:33.119Z,5.62
2018-01-02T05:49:33.346Z,5.69
2018-01-02T05:50:33.096Z,5.73
2018-01-02T05:51:33.079Z,5.62
2018-01-02T05:52:33.079Z,5.53
2018-01-02T05:53:33.072Z,5.53
2018-01-02T05:54:33.063Z,5.51
2018-01-02T05:55:33.062Z,5.36
2018-01-02T05:56:33.045Z,5.36
2018-01-02T05:57:33.039Z,5.33
2018-01-02T05:58:32.774Z,5.44
2018-01-02T05:59:33.268Z,5.46
2018-01-02T06:00:33.013Z,5.41
2018-01-02T06:01:33.006Z,5.46
2018-01-02T06:02:33.001Z,5.47
2018-01-02T06:03:33.248Z,5.5
2018-01-02T06:04:32.983Z,5.54
2018-01-02T06:05:33.483Z,5.57
2018-01-02T06:06:32.970Z,5.5
2018-01-02T06:07:32.959Z,5.47
2018-01-02T06:08:32.702Z,5.51
2018-01-02T06:09:32.952Z,5.46
2018-01-02T06:10:33.205Z,5.47
2018-01-02T06:11:33.187Z,5.36
2018-01-02T06:12:32.675Z,5.39
2018-01-02T06:13:33.169Z,5.33
2018-01-02T06:14:33.168Z,5.39
2018-01-02T06:15:32.902Z,5.32
2018-01-02T06:16:33.156Z,5.36
2018-01-02T06:17:32.904Z,5.36
2018-01-02T06:18:32.894Z,5.28
2018-01-02T06:19:32.879Z,5.36
2018-01-02T06:20:33.432Z,5.38
2018-01-02T06:21:33.113Z,5.36
2018-01-02T06:22:33.164Z,5.36
2018-01-02T06:23:32.857Z,5.36
2018-01-02T06:24:33.097Z,5.39
2018-01-02T06:25:32.836Z,5.35
2018-01-02T06:26:33.079Z,5.47
2018-01-02T06:27:32.811Z,5.5
2018-01-02T06:28:33.057Z,5.53
2018-01-02T06:29:32.798Z,5.44
2018-01-02T06:30:33.059Z,5.48
2018-01-02T06:31:32.549Z,5.48
2018-01-02T06:32:33.042Z,5.5
2018-01-02T06:33:33.049Z,5.56
2018-01-02T06:34:32.762Z,5.54
2018-01-02T06:35:34.007Z,5.64
2018-01-02T06:36:32.999Z,5.65
2018-01-02T06:37:32.739Z,5.68
2018-01-02T06:38:32.979Z,5.8
2018-01-02T06:39:32.983Z,5.79
2018-01-02T06:40:32.986Z,5.8
2018-01-02T06:41:32.708Z,5.83
2018-01-02T06:42:32.957Z,5.84
2018-01-02T06:43:32.438Z,5.84
2018-01-02T06:44:32.691Z,5.86
2018-01-02T06:45:32.676Z,5.82
2018-01-02T06:46:32.668Z,5.83
2018-01-02T06:47:32.919Z,5.82
2018-01-02T06:48:32.402Z,5.79
2018-01-02T06:49:32.898Z,5.82
2018-01-02T06:50:32.401Z,5.87
2018-01-02T06:51:32.880Z,5.84
2018-01-02T06:52:32.874Z,5.86
2018-01-02T06:53:32.869Z,5.83
2018-01-02T06:54:32.875Z,5.89
2018-01-02T06:55:32.605Z,5.79
2018-01-02T06:56:32.588Z,5.84
2018-01-02T06:57:32.330Z,5.83
2018-01-02T06:58:32.596Z,5.86
2018-01-02T06:59:32.319Z,5.86
2018-01-02T07:00:32.811Z,5.93
2018-01-02T07:01:32.806Z,5.97
2018-01-02T07:02:32.296Z,5.87
2018-01-02T07:03:32.538Z,5.89
2018-01-02T07:04:32.526Z,5.82
2018-01-02T07:05:33.774Z,5.93
2018-01-02T07:06:32.510Z,5.83
2018-01-02T07:07:32.508Z,5.84
2018-01-02T07:08:32.755Z,5.84
2018-01-02T07:09:32.491Z,5.79
2018-01-02T07:10:32.735Z,5.8
2018-01-02T07:11:32.222Z,5.82
2018-01-02T07:12:32.718Z,5.76
2018-01-02T07:13:32.711Z,5.79
2018-01-02T07:14:32.706Z,5.71
2018-01-02T07:15:32.700Z,5.79
2018-01-02T07:16:32.687Z,5.76
2018-01-02T07:17:32.435Z,5.76
2018-01-02T07:18:32.419Z,5.76
2018-01-02T07:19:32.673Z,5.68
2018-01-02T07:20:32.412Z,5.66
2018-01-02T07:21:32.657Z,5.76
2018-01-02T07:22:32.392Z,5.76
2018-01-02T07:23:32.633Z,5.76
2018-01-02T07:24:32.382Z,5.75
2018-01-02T07:25:32.379Z,5.76
2018-01-02T07:26:32.366Z,5.76
2018-01-02T07:27:32.614Z,5.73
2018-01-02T07:28:32.359Z,5.72
2018-01-02T07:29:32.096Z,5.76
2018-01-02T07:30:32.586Z,5.82
2018-01-02T07:31:32.326Z,5.84
2018-01-02T07:32:32.322Z,5.83
2018-01-02T07:33:32.317Z,5.79
2018-01-02T07:34:32.308Z,5.86
2018-01-02T07:35:32.307Z,5.89
2018-01-02T07:36:32.434Z,5.91
2018-01-02T07:37:32.534Z,5.97
2018-01-02T07:38:32.020Z,5.93
2018-01-02T07:39:32.519Z,5.97
2018-01-02T07:40:32.275Z,5.94
2018-01-02T07:41:32.253Z,5.91
2018-01-02T07:42:32.504Z,5.83
2018-01-02T07:43:32.234Z,5.83
2018-01-02T07:44:32.236Z,5.76
2018-01-02T07:45:32.473Z,5.82
2018-01-02T07:46:32.209Z,5.83
2018-01-02T07:47:32.452Z,5.84
2018-01-02T07:48:32.203Z,5.79
2018-01-02T07:49:32.191Z,5.82
2018-01-02T07:50:32.437Z,5.91
2018-01-02T07:51:31.944Z,5.91
2018-01-02T07:52:32.416Z,5.98
2018-01-02T07:53:32.166Z,5.86
2018-01-02T07:54:32.150Z,5.94
2018-01-02T07:55:32.395Z,5.84
2018-01-02T07:56:32.385Z,5.86
2018-01-02T07:57:32.382Z,5.94
2018-01-02T07:58:32.378Z,5.84
2018-01-02T07:59:32.366Z,5.89
2018-01-02T08:00:32.352Z,5.94
2018-01-02T08:01:32.353Z,5.93
2018-01-02T08:02:32.336Z,5.9
2018-01-02T08:03:31.840Z,5.84
2018-01-02T08:04:32.077Z,5.91
2018-01-02T08:05:31.837Z,5.97
2018-01-02T08:06:36.073Z,5.98
2018-01-02T08:07:32.061Z,5.97
2018-01-02T08:08:31.811Z,5.94
2018-01-02T08:09:32.037Z,6.02
2018-01-02T08:10:31.775Z,6.09
2018-01-02T08:11:32.330Z,6.02
2018-01-02T08:12:32.266Z,5.99
2018-01-02T08:13:32.258Z,6.09
2018-01-02T08:14:32.249Z,6.04
2018-01-02T08:15:31.769Z,6.02
2018-01-02T08:16:32.242Z,6.09
2018-01-02T08:17:31.989Z,6.07
2018-01-02T08:18:32.231Z,6.12
2018-01-02T08:19:31.736Z,6.05
2018-01-02T08:20:32.225Z,6.09
2018-01-02T08:21:31.950Z,6.09
2018-01-02T08:22:32.206Z,6.14
2018-01-02T08:23:31.945Z,6.2
2018-01-02T08:24:32.187Z,6.27
2018-01-02T08:25:32.186Z,6.2
2018-01-02T08:26:32.167Z,6.22
2018-01-02T08:27:31.687Z,6.24
2018-01-02T08:28:31.902Z,6.27
2018-01-02T08:29:31.885Z,6.39
2018-01-02T08:30:31.884Z,6.33
2018-01-02T08:31:32.186Z,6.41
2018-01-02T08:32:32.126Z,6.42
2018-01-02T08:33:31.631Z,6.38
2018-01-02T08:34:32.105Z,6.42
2018-01-02T08:35:31.609Z,6.38
2018-01-02T08:37:32.105Z,6.35
2018-01-02T08:38:31.842Z,6.36
2018-01-02T08:39:32.082Z,6.44
2018-01-02T08:40:31.824Z,6.38
2018-01-02T08:41:31.570Z,6.36
2018-01-02T08:42:32.049Z,6.44
2018-01-02T08:43:31.797Z,6.42
2018-01-02T08:44:31.780Z,6.42
2018-01-02T08:45:32.032Z,6.45
2018-01-02T08:46:31.793Z,6.46
2018-01-02T08:47:31.783Z,6.44
2018-01-02T08:48:32.018Z,6.51
2018-01-02T08:49:32.004Z,6.54
2018-01-02T08:50:31.989Z,6.49
2018-01-02T08:51:31.988Z,6.52
2018-01-02T08:52:31.990Z,6.56
2018-01-02T08:53:31.980Z,6.57
2018-01-02T08:54:31.464Z,6.52
2018-01-02T08:55:31.748Z,6.66
2018-01-02T08:56:31.952Z,6.63
2018-01-02T08:57:31.718Z,6.63
2018-01-02T08:58:31.948Z,6.66
2018-01-02T08:59:31.684Z,6.7
2018-01-02T09:00:31.677Z,6.66
2018-01-02T09:01:31.718Z,6.7
2018-01-02T09:02:31.955Z,6.77
2018-01-02T09:03:31.731Z,6.77
2018-01-02T09:04:31.653Z,6.82
2018-01-02T09:05:31.906Z,6.81
2018-01-02T09:06:31.639Z,6.84
2018-01-02T09:07:31.802Z,6.79
2018-01-02T09:08:31.875Z,6.84
2018-01-02T09:09:31.631Z,6.93
2018-01-02T09:10:31.930Z,6.87
2018-01-02T09:11:31.869Z,6.96
2018-01-02T09:12:32.656Z,6.97
2018-01-02T09:13:31.331Z,7.03
2018-01-02T09:14:31.851Z,7.06
2018-01-02T09:15:31.319Z,7.07
2018-01-02T09:16:31.841Z,7.11
2018-01-02T09:17:31.570Z,7.07
2018-01-02T09:18:31.825Z,7.17
2018-01-02T09:19:31.293Z,7.13
2018-01-02T09:20:31.285Z,7.13
2018-01-02T09:21:31.530Z,7.07
2018-01-02T09:22:33.320Z,7.14
2018-01-02T09:23:31.805Z,7.11
2018-01-02T09:24:31.778Z,7.2
2018-01-02T09:25:31.251Z,7.29
2018-01-02T09:26:31.752Z,7.28
2018-01-02T09:27:31.501Z,7.28
2018-01-02T09:28:31.231Z,7.31
2018-01-02T09:29:31.491Z,7.35
2018-01-02T09:30:31.489Z,7.33
2018-01-02T09:31:31.741Z,7.28
2018-01-02T09:32:31.459Z,7.33
2018-01-02T09:33:31.748Z,7.32
2018-01-02T09:34:31.791Z,7.33
2018-01-02T09:35:31.437Z,7.43
2018-01-02T09:36:31.438Z,7.48
2018-01-02T09:37:33.236Z,7.53
2018-01-02T09:38:31.694Z,7.6
2018-01-02T09:39:31.420Z,7.53
2018-01-02T09:40:31.404Z,7.58
2018-01-02T09:41:31.399Z,7.57
2018-01-02T09:42:31.407Z,7.5
2018-01-02T09:43:31.675Z,7.58
2018-01-02T09:44:31.127Z,7.6
2018-01-02T09:45:31.649Z,7.63
2018-01-02T09:46:31.382Z,7.58
2018-01-02T09:47:31.109Z,7.57
2018-01-02T09:48:31.358Z,7.7
2018-01-02T09:49:31.357Z,7.7
2018-01-02T09:50:31.093Z,7.73
2018-01-02T09:51:31.083Z,7.72
2018-01-02T09:52:31.334Z,7.76
2018-01-02T09:53:31.329Z,7.67
2018-01-02T09:54:31.318Z,7.72
2018-01-02T09:55:31.364Z,7.69
2018-01-02T09:56:31.306Z,7.6
2018-01-02T09:57:31.559Z,7.7
2018-01-02T09:58:31.557Z,7.6
2018-01-02T09:59:31.569Z,7.6
2018-01-02T10:00:31.289Z,7.72
2018-01-02T10:01:31.284Z,7.7
2018-01-02T10:02:31.321Z,7.66
2018-01-02T10:03:31.315Z,7.75
2018-01-02T10:04:31.521Z,7.67
2018-01-02T10:05:31.256Z,7.7
2018-01-02T10:06:31.581Z,7.79
2018-01-02T10:07:31.501Z,7.73
2018-01-02T10:08:31.227Z,7.72
2018-01-02T10:09:31.488Z,7.73
2018-01-02T10:10:31.230Z,7.7
2018-01-02T10:11:31.214Z,7.67
2018-01-02T10:12:30.952Z,7.8
2018-01-02T10:13:31.457Z,7.87
2018-01-02T10:14:31.454Z,7.88
2018-01-02T10:15:31.435Z,7.82
2018-01-02T10:16:31.431Z,7.9
2018-01-02T10:17:31.194Z,7.91
2018-01-02T10:18:31.173Z,7.9
2018-01-02T10:19:31.168Z,7.83
2018-01-02T10:20:31.193Z,7.9
2018-01-02T10:21:31.410Z,7.9
2018-01-02T10:22:31.150Z,7.93
2018-01-02T10:52:46.615Z,8.34
2018-01-02T10:53:46.597Z,8.37
2018-01-02T10:54:46.596Z,8.37
2018-01-02T10:55:46.325Z,8.34
2018-01-02T10:56:46.308Z,8.38
2018-01-02T10:57:46.550Z,8.41
2018-01-02T10:58:46.293Z,8.42
2018-01-02T10:59:46.533Z,8.42
2018-01-02T11:00:46.798Z,8.44
2018-01-02T11:01:46.816Z,8.38
2018-01-02T11:02:46.757Z,8.38
2018-01-02T11:03:46.502Z,8.38
2018-01-02T11:04:46.759Z,8.42
2018-01-02T11:05:46.495Z,8.42
2018-01-02T11:06:46.491Z,8.33
2018-01-02T11:07:46.733Z,8.33
2018-01-02T11:08:46.726Z,8.31
2018-01-02T11:09:46.725Z,8.33
2018-01-02T11:10:46.721Z,8.34
2018-01-02T11:11:46.451Z,8.31
2018-01-02T11:12:46.455Z,8.27
2018-01-02T11:13:46.707Z,8.3
2018-01-02T11:14:46.445Z,8.33
2018-01-02T11:15:46.452Z,8.34
2018-01-02T11:16:46.430Z,8.3
2018-01-02T11:17:46.418Z,8.33
2018-01-02T11:18:46.411Z,8.26
2018-01-02T11:19:46.155Z,8.24
2018-01-02T11:20:46.399Z,8.31
2018-01-02T11:21:46.648Z,8.33
2018-01-02T11:22:46.385Z,8.37
2018-01-02T11:23:46.644Z,8.44
2018-01-02T11:24:46.633Z,8.42
2018-01-02T11:25:46.368Z,8.41
2018-01-02T11:26:46.617Z,8.31
2018-01-02T11:27:46.359Z,8.3
2018-01-02T11:28:46.612Z,8.3
2018-01-02T11:29:46.601Z,8.23
2018-01-02T11:30:46.343Z,8.19
2018-01-02T11:31:46.336Z,8.19
2018-01-02T11:32:46.581Z,8.23
2018-01-02T11:33:46.577Z,8.27
2018-01-02T11:34:46.594Z,8.41
2018-01-02T11:35:46.074Z,8.38
2018-01-02T11:36:46.573Z,8.46
2018-01-02T11:37:46.565Z,8.56
2018-01-02T11:38:46.551Z,8.52
2018-01-02T11:39:46.295Z,8.66
2018-01-02T11:40:46.288Z,8.78
2018-01-02T11:41:46.284Z,8.82
2018-01-02T11:42:46.531Z,8.92
2018-01-02T11:43:46.273Z,9
2018-01-02T11:44:46.532Z,8.99
2018-01-02T11:45:46.269Z,9.08
2018-01-02T11:46:46.530Z,9.04
2018-01-02T11:47:46.519Z,9.02
2018-01-02T11:48:46.511Z,8.88
2018-01-02T11:49:46.508Z,8.84
2018-01-02T11:50:46.512Z,8.85
2018-01-02T11:51:46.487Z,8.82
2018-01-02T11:52:46.484Z,8.81
2018-01-02T11:53:46.479Z,8.69
2018-01-02T11:54:46.471Z,8.69
2018-01-02T11:55:46.215Z,8.74
2018-01-02T11:56:46.225Z,8.82
2018-01-02T11:57:46.459Z,8.76
2018-01-02T11:58:46.454Z,8.84
2018-01-02T11:59:46.214Z,8.76
2018-01-02T12:00:46.448Z,8.7
2018-01-02T12:01:46.445Z,8.64
2018-01-02T12:02:46.439Z,8.61
2018-01-02T12:03:46.178Z,8.58
2018-01-02T12:04:46.423Z,8.51
2018-01-02T12:05:46.423Z,8.42
2018-01-02T12:06:46.422Z,8.49
2018-01-02T12:07:46.412Z,8.42
2018-01-02T12:08:46.449Z,8.41
2018-01-02T12:09:46.149Z,8.51
2018-01-02T12:10:45.902Z,8.51
2018-01-02T12:11:46.402Z,8.52
2018-01-02T12:12:46.385Z,8.45
2018-01-02T12:13:46.127Z,8.41
2018-01-02T12:14:46.381Z,8.52
2018-01-02T12:15:46.120Z,8.52
2018-01-02T12:16:46.365Z,8.55
2018-01-02T12:17:46.144Z,8.56
2018-01-02T12:18:46.113Z,8.61
2018-01-02T12:19:46.101Z,8.6
2018-01-02T12:20:46.350Z,8.52
2018-01-02T12:21:46.106Z,8.55
2018-01-02T12:22:46.083Z,8.61
2018-01-02T12:23:46.335Z,8.6
2018-01-02T12:24:46.350Z,8.55
2018-01-02T12:25:46.324Z,8.66
2018-01-02T12:26:46.315Z,8.55
2018-01-02T12:27:46.065Z,8.63
2018-01-02T12:28:46.316Z,8.56
2018-01-02T12:29:45.811Z,8.55
2018-01-02T12:30:46.047Z,8.58
2018-01-02T12:31:46.045Z,8.51
2018-01-02T12:32:46.335Z,8.53
2018-01-02T12:33:46.084Z,8.52
2018-01-02T12:34:46.031Z,8.58
2018-01-02T12:35:45.775Z,8.58
2018-01-02T12:36:46.014Z,8.61
2018-01-02T12:37:46.010Z,8.58
2018-01-02T12:38:46.006Z,8.66
2018-01-02T12:39:46.257Z,8.64
2018-01-02T12:40:46.251Z,8.73
2018-01-02T12:41:45.996Z,8.76
2018-01-02T12:42:46.270Z,8.74
2018-01-02T12:43:46.236Z,8.79
2018-01-02T12:44:45.976Z,8.69
2018-01-02T12:45:46.223Z,8.63
2018-01-02T12:46:45.967Z,8.73
2018-01-02T12:47:46.215Z,8.76
2018-01-02T12:48:45.959Z,8.76
2018-01-02T12:49:46.215Z,8.7
2018-01-02T12:50:46.238Z,8.63
2018-01-02T12:51:45.945Z,8.61
2018-01-02T12:52:45.697Z,8.63
2018-01-02T12:53:46.186Z,8.49
2018-01-02T12:54:46.189Z,8.36
2018-01-02T12:55:45.927Z,8.41
2018-01-02T12:56:45.916Z,8.41
2018-01-02T12:57:46.170Z,8.37
2018-01-02T12:58:45.907Z,8.37
2018-01-02T12:59:46.162Z,8.41
2018-01-02T13:00:45.952Z,8.31
2018-01-02T13:01:45.897Z,8.45
2018-01-02T13:02:45.890Z,8.41
2018-01-02T13:03:46.159Z,8.36
2018-01-02T13:04:45.910Z,8.37
2018-01-02T13:05:46.129Z,8.24
2018-01-02T13:06:45.864Z,8.19
2018-01-02T13:07:46.125Z,8.01
2018-01-02T13:08:45.861Z,7.87
2018-01-02T13:09:46.131Z,7.83
2018-01-02T13:10:45.592Z,7.79
2018-01-02T13:11:46.093Z,7.72
2018-01-02T13:12:46.086Z,7.57
2018-01-02T13:13:45.827Z,7.58
2018-01-02T13:14:46.074Z,7.56
2018-01-02T13:15:45.828Z,7.6
2018-01-02T13:16:46.075Z,7.5
2018-01-02T13:17:45.805Z,7.66
2018-01-02T13:18:46.052Z,7.66
2018-01-02T13:19:45.797Z,7.61
2018-01-02T13:20:46.039Z,7.61
2018-01-02T13:21:46.107Z,7.72
2018-01-02T13:22:46.054Z,7.58
2018-01-02T13:23:45.771Z,7.56
2018-01-02T13:24:46.028Z,7.58
2018-01-02T13:25:45.757Z,7.72
2018-01-02T13:26:45.754Z,7.72
2018-01-02T13:27:45.757Z,7.76
2018-01-02T13:28:45.998Z,7.67
2018-01-02T13:29:45.997Z,7.79
2018-01-02T13:30:46.004Z,7.7
2018-01-02T13:31:45.983Z,7.79
2018-01-02T13:32:45.791Z,7.76
2018-01-02T13:33:45.464Z,7.73
2018-01-02T13:34:45.713Z,7.67
2018-01-02T13:35:45.998Z,7.73
2018-01-02T13:36:45.707Z,7.73
2018-01-02T13:37:45.694Z,7.67
2018-01-02T13:38:45.691Z,7.67
2018-01-02T13:39:45.932Z,7.53
2018-01-02T13:40:45.686Z,7.54
2018-01-02T13:41:45.924Z,7.51
2018-01-02T13:42:45.923Z,7.48
2018-01-02T13:43:45.659Z,7.4
2018-01-02T13:44:45.652Z,7.48
2018-01-02T13:45:45.684Z,7.48
2018-01-02T13:46:45.912Z,7.51
2018-01-02T13:47:45.640Z,7.47
2018-01-02T13:48:45.881Z,7.56
2018-01-02T13:49:45.374Z,7.43
2018-01-02T13:50:45.876Z,7.48
2018-01-02T13:51:45.879Z,7.47